sensor_id;sensor_type;location;lat;lon;timestamp;pressure;altitude;pressure_sealevel;temperature;humidity
63731;BME280;49747;51.334;6.830;2023-02-18T00:00:16;101730.41;;;12.74;97.78
63731;BME280;49747;51.334;6.830;2023-02-18T00:02:44;101727.19;;;12.69;97.72
63731;BME280;49747;51.334;6.830;2023-02-18T00:05:12;101720.78;;;12.72;97.76
63731;BME280;49747;51.334;6.830;2023-02-18T00:07:40;101727.59;;;12.63;98.62
63731;BME280;49747;51.334;6.830;2023-02-18T00:10:11;101726.53;;;12.66;98.09
63731;BME280;49747;51.334;6.830;2023-02-18T00:12:38;101724.41;;;12.71;97.77
63731;BME280;49747;51.334;6.830;2023-02-18T00:15:05;101719.56;;;12.77;97.28
63731;BME280;49747;51.334;6.830;2023-02-18T00:17:32;101716.63;;;12.68;98.04
63731;BME280;49747;51.334;6.830;2023-02-18T00:19:59;101711.56;;;12.77;97.67
63731;BME280;49747;51.334;6.830;2023-02-18T00:22:26;101703.94;;;12.71;98.06
63731;BME280;49747;51.334;6.830;2023-02-18T00:24:52;101704.91;;;12.70;98.42
63731;BME280;49747;51.334;6.830;2023-02-18T00:27:19;101698.72;;;12.70;98.33
63731;BME280;49747;51.334;6.830;2023-02-18T00:29:45;101685.78;;;12.64;98.61
63731;BME280;49747;51.334;6.830;2023-02-18T00:32:12;101690.59;;;12.71;98.08
63731;BME280;49747;51.334;6.830;2023-02-18T00:34:38;101690.06;;;12.66;98.48
63731;BME280;49747;51.334;6.830;2023-02-18T00:37:05;101685.94;;;12.75;98.05
63731;BME280;49747;51.334;6.830;2023-02-18T00:39:31;101686.03;;;12.73;98.19
63731;BME280;49747;51.334;6.830;2023-02-18T00:41:58;101692.53;;;12.69;98.31
63731;BME280;49747;51.334;6.830;2023-02-18T00:44:24;101688.38;;;12.65;98.95
63731;BME280;49747;51.334;6.830;2023-02-18T00:46:51;101675.78;;;12.67;98.53
63731;BME280;49747;51.334;6.830;2023-02-18T00:49:18;101694.53;;;12.66;98.73
63731;BME280;49747;51.334;6.830;2023-02-18T00:51:45;101680.75;;;12.59;99.46
63731;BME280;49747;51.334;6.830;2023-02-18T00:54:11;101681.06;;;12.54;100.00
63731;BME280;49747;51.334;6.830;2023-02-18T00:56:38;101667.72;;;12.54;99.43
63731;BME280;49747;51.334;6.830;2023-02-18T00:59:05;101674.88;;;12.54;99.80
63731;BME280;49747;51.334;6.830;2023-02-18T01:01:32;101658.97;;;12.52;99.57
63731;BME280;49747;51.334;6.830;2023-02-18T01:03:58;101665.47;;;12.48;99.99
63731;BME280;49747;51.334;6.830;2023-02-18T01:06:25;101662.28;;;12.56;99.79
63731;BME280;49747;51.334;6.830;2023-02-18T01:08:52;101665.81;;;12.56;99.85
63731;BME280;49747;51.334;6.830;2023-02-18T01:11:18;101660.28;;;12.60;99.76
63731;BME280;49747;51.334;6.830;2023-02-18T01:13:45;101656.84;;;12.45;100.00
63731;BME280;49747;51.334;6.830;2023-02-18T01:16:12;101648.88;;;12.57;99.69
63731;BME280;49747;51.334;6.830;2023-02-18T01:18:39;101659.03;;;12.65;99.32
63731;BME280;49747;51.334;6.830;2023-02-18T01:21:07;101652.91;;;12.50;99.96
63731;BME280;49747;51.334;6.830;2023-02-18T01:23:39;101665.06;;;12.54;99.76
63731;BME280;49747;51.334;6.830;2023-02-18T01:26:06;101652.78;;;12.52;100.00
63731;BME280;49747;51.334;6.830;2023-02-18T01:28:36;101648.22;;;12.54;99.52
63731;BME280;49747;51.334;6.830;2023-02-18T01:31:06;101652.09;;;12.63;99.32
63731;BME280;49747;51.334;6.830;2023-02-18T01:33:34;101648.38;;;12.65;99.13
63731;BME280;49747;51.334;6.830;2023-02-18T01:36:01;101643.25;;;12.62;98.75
63731;BME280;49747;51.334;6.830;2023-02-18T01:38:28;101646.41;;;12.54;99.12
63731;BME280;49747;51.334;6.830;2023-02-18T01:40:54;101642.44;;;12.47;99.66
63731;BME280;49747;51.334;6.830;2023-02-18T01:43:21;101642.91;;;12.54;99.12
63731;BME280;49747;51.334;6.830;2023-02-18T01:45:55;101629.38;;;12.57;98.88
63731;BME280;49747;51.334;6.830;2023-02-18T01:51:24;101625.28;;;12.51;99.48
63731;BME280;49747;51.334;6.830;2023-02-18T01:53:59;101624.97;;;12.56;98.88
63731;BME280;49747;51.334;6.830;2023-02-18T01:59:15;101616.25;;;12.54;99.00
63731;BME280;49747;51.334;6.830;2023-02-18T02:01:44;101617.63;;;12.60;98.57
63731;BME280;49747;51.334;6.830;2023-02-18T02:04:12;101609.75;;;12.58;98.60
63731;BME280;49747;51.334;6.830;2023-02-18T02:06:39;101608.25;;;12.54;98.86
63731;BME280;49747;51.334;6.830;2023-02-18T02:09:09;101612.09;;;12.63;98.24
63731;BME280;49747;51.334;6.830;2023-02-18T02:17:11;101606.00;;;12.61;98.54
63731;BME280;49747;51.334;6.830;2023-02-18T02:19:59;101601.09;;;12.54;98.68
63731;BME280;49747;51.334;6.830;2023-02-18T02:25:46;101597.59;;;12.54;99.10
63731;BME280;49747;51.334;6.830;2023-02-18T02:31:37;101592.59;;;12.62;99.43
63731;BME280;49747;51.334;6.830;2023-02-18T02:34:30;101590.91;;;12.61;99.42
63731;BME280;49747;51.334;6.830;2023-02-18T02:37:26;101585.56;;;12.61;99.11
63731;BME280;49747;51.334;6.830;2023-02-18T02:40:35;101585.56;;;12.61;99.85
63731;BME280;49747;51.334;6.830;2023-02-18T02:43:45;101578.72;;;12.57;99.81
63731;BME280;49747;51.334;6.830;2023-02-18T02:46:30;101577.56;;;12.61;99.45
63731;BME280;49747;51.334;6.830;2023-02-18T02:49:11;101572.28;;;12.47;100.00
63731;BME280;49747;51.334;6.830;2023-02-18T02:54:25;101573.69;;;12.52;100.00
63731;BME280;49747;51.334;6.830;2023-02-18T02:59:37;101563.25;;;12.49;100.00
63731;BME280;49747;51.334;6.830;2023-02-18T03:02:40;101562.41;;;12.49;100.00
63731;BME280;49747;51.334;6.830;2023-02-18T03:05:52;101564.84;;;12.52;100.00
63731;BME280;49747;51.334;6.830;2023-02-18T03:08:50;101562.47;;;12.47;100.00
63731;BME280;49747;51.334;6.830;2023-02-18T03:11:22;101550.78;;;12.50;100.00
63731;BME280;49747;51.334;6.830;2023-02-18T03:13:56;101540.09;;;12.37;100.00
63731;BME280;49747;51.334;6.830;2023-02-18T03:16:45;101536.69;;;12.48;100.00
63731;BME280;49747;51.334;6.830;2023-02-18T03:19:24;101547.59;;;12.57;100.00
63731;BME280;49747;51.334;6.830;2023-02-18T03:21:58;101546.94;;;12.54;100.00
63731;BME280;49747;51.334;6.830;2023-02-18T03:24:49;101534.59;;;12.53;100.00
63731;BME280;49747;51.334;6.830;2023-02-18T03:27:22;101524.13;;;12.50;100.00
63731;BME280;49747;51.334;6.830;2023-02-18T03:29:55;101523.28;;;12.49;100.00
63731;BME280;49747;51.334;6.830;2023-02-18T03:32:24;101527.28;;;12.29;100.00
63731;BME280;49747;51.334;6.830;2023-02-18T03:34:56;101519.38;;;12.41;100.00
63731;BME280;49747;51.334;6.830;2023-02-18T03:37:26;101518.47;;;12.42;100.00
63731;BME280;49747;51.334;6.830;2023-02-18T03:39:56;101515.03;;;12.40;100.00
63731;BME280;49747;51.334;6.830;2023-02-18T03:42:26;101515.13;;;12.38;100.00
63731;BME280;49747;51.334;6.830;2023-02-18T03:44:54;101497.13;;;12.29;100.00
63731;BME280;49747;51.334;6.830;2023-02-18T03:47:22;101503.28;;;12.29;100.00
63731;BME280;49747;51.334;6.830;2023-02-18T03:49:49;101484.22;;;12.36;100.00
63731;BME280;49747;51.334;6.830;2023-02-18T03:52:16;101484.84;;;12.26;100.00
63731;BME280;49747;51.334;6.830;2023-02-18T03:54:42;101488.47;;;12.25;100.00
63731;BME280;49747;51.334;6.830;2023-02-18T03:57:09;101488.69;;;12.35;100.00
63731;BME280;49747;51.334;6.830;2023-02-18T03:59:36;101485.69;;;12.27;100.00
63731;BME280;49747;51.334;6.830;2023-02-18T04:02:02;101487.19;;;12.31;100.00
63731;BME280;49747;51.334;6.830;2023-02-18T04:04:29;101488.16;;;12.30;100.00
63731;BME280;49747;51.334;6.830;2023-02-18T04:06:55;101481.88;;;12.31;100.00
63731;BME280;49747;51.334;6.830;2023-02-18T04:09:23;101478.66;;;12.26;100.00
63731;BME280;49747;51.334;6.830;2023-02-18T04:11:49;101476.41;;;12.32;100.00
63731;BME280;49747;51.334;6.830;2023-02-18T04:14:16;101462.03;;;12.22;100.00
63731;BME280;49747;51.334;6.830;2023-02-18T04:16:42;101466.53;;;12.35;100.00
63731;BME280;49747;51.334;6.830;2023-02-18T04:19:09;101466.19;;;12.26;100.00
63731;BME280;49747;51.334;6.830;2023-02-18T04:21:36;101465.75;;;12.32;100.00
63731;BME280;49747;51.334;6.830;2023-02-18T04:24:02;101469.19;;;12.35;100.00
63731;BME280;49747;51.334;6.830;2023-02-18T04:26:29;101467.59;;;12.32;100.00
63731;BME280;49747;51.334;6.830;2023-02-18T04:28:56;101467.50;;;12.33;100.00
63731;BME280;49747;51.334;6.830;2023-02-18T04:31:22;101468.66;;;12.29;100.00
63731;BME280;49747;51.334;6.830;2023-02-18T04:33:49;101461.41;;;12.31;100.00
63731;BME280;49747;51.334;6.830;2023-02-18T04:36:16;101460.72;;;12.15;100.00
63731;BME280;49747;51.334;6.830;2023-02-18T04:38:42;101461.06;;;12.23;100.00
63731;BME280;49747;51.334;6.830;2023-02-18T04:41:09;101455.00;;;12.21;100.00
63731;BME280;49747;51.334;6.830;2023-02-18T04:43:35;101448.25;;;12.16;100.00
63731;BME280;49747;51.334;6.830;2023-02-18T04:46:02;101443.50;;;12.21;100.00
63731;BME280;49747;51.334;6.830;2023-02-18T04:48:29;101442.41;;;12.23;100.00
63731;BME280;49747;51.334;6.830;2023-02-18T04:50:55;101444.56;;;12.31;100.00
63731;BME280;49747;51.334;6.830;2023-02-18T04:53:22;101438.38;;;12.18;100.00
63731;BME280;49747;51.334;6.830;2023-02-18T04:55:52;101448.88;;;12.06;100.00
63731;BME280;49747;51.334;6.830;2023-02-18T04:58:20;101442.84;;;12.17;100.00
63731;BME280;49747;51.334;6.830;2023-02-18T05:00:46;101425.97;;;12.04;100.00
63731;BME280;49747;51.334;6.830;2023-02-18T05:03:13;101436.63;;;12.04;100.00
63731;BME280;49747;51.334;6.830;2023-02-18T05:05:40;101431.06;;;11.94;100.00
63731;BME280;49747;51.334;6.830;2023-02-18T05:08:07;101435.13;;;12.00;100.00
63731;BME280;49747;51.334;6.830;2023-02-18T05:10:34;101424.81;;;12.08;100.00
63731;BME280;49747;51.334;6.830;2023-02-18T05:13:02;101425.38;;;12.13;100.00
63731;BME280;49747;51.334;6.830;2023-02-18T05:15:29;101405.44;;;12.06;100.00
63731;BME280;49747;51.334;6.830;2023-02-18T05:17:55;101425.13;;;12.03;100.00
63731;BME280;49747;51.334;6.830;2023-02-18T05:20:22;101404.44;;;11.94;100.00
63731;BME280;49747;51.334;6.830;2023-02-18T05:22:49;101408.59;;;11.98;100.00
63731;BME280;49747;51.334;6.830;2023-02-18T05:25:15;101399.13;;;12.07;100.00
63731;BME280;49747;51.334;6.830;2023-02-18T05:27:42;101404.53;;;11.93;100.00
63731;BME280;49747;51.334;6.830;2023-02-18T05:30:09;101403.78;;;11.91;100.00
63731;BME280;49747;51.334;6.830;2023-02-18T05:32:35;101397.44;;;11.79;100.00
63731;BME280;49747;51.334;6.830;2023-02-18T05:35:02;101394.75;;;11.93;100.00
63731;BME280;49747;51.334;6.830;2023-02-18T05:37:29;101395.16;;;11.87;100.00
63731;BME280;49747;51.334;6.830;2023-02-18T05:39:55;101378.03;;;11.91;100.00
63731;BME280;49747;51.334;6.830;2023-02-18T05:42:22;101379.63;;;11.94;100.00
63731;BME280;49747;51.334;6.830;2023-02-18T05:44:48;101382.69;;;11.88;100.00
63731;BME280;49747;51.334;6.830;2023-02-18T05:47:15;101374.72;;;12.00;100.00
63731;BME280;49747;51.334;6.830;2023-02-18T05:49:42;101377.81;;;11.94;100.00
63731;BME280;49747;51.334;6.830;2023-02-18T05:52:10;101371.97;;;11.89;100.00
63731;BME280;49747;51.334;6.830;2023-02-18T05:54:37;101372.56;;;11.93;100.00
63731;BME280;49747;51.334;6.830;2023-02-18T05:57:04;101348.94;;;11.88;100.00
63731;BME280;49747;51.334;6.830;2023-02-18T05:59:30;101347.38;;;11.71;100.00
63731;BME280;49747;51.334;6.830;2023-02-18T06:01:57;101355.44;;;11.84;100.00
63731;BME280;49747;51.334;6.830;2023-02-18T06:04:24;101353.81;;;11.81;100.00
63731;BME280;49747;51.334;6.830;2023-02-18T06:06:50;101355.78;;;11.65;100.00
63731;BME280;49747;51.334;6.830;2023-02-18T06:09:22;101352.84;;;11.82;100.00
63731;BME280;49747;51.334;6.830;2023-02-18T06:11:49;101353.25;;;11.76;100.00
63731;BME280;49747;51.334;6.830;2023-02-18T06:14:16;101358.56;;;11.76;100.00
63731;BME280;49747;51.334;6.830;2023-02-18T06:16:43;101362.72;;;11.80;100.00
63731;BME280;49747;51.334;6.830;2023-02-18T06:19:10;101357.06;;;11.72;100.00
63731;BME280;49747;51.334;6.830;2023-02-18T06:21:36;101363.25;;;11.73;100.00
63731;BME280;49747;51.334;6.830;2023-02-18T06:24:03;101365.91;;;11.73;100.00
63731;BME280;49747;51.334;6.830;2023-02-18T06:26:30;101358.03;;;11.71;100.00
63731;BME280;49747;51.334;6.830;2023-02-18T06:28:56;101363.25;;;11.73;100.00
63731;BME280;49747;51.334;6.830;2023-02-18T06:31:23;101352.38;;;11.63;100.00
63731;BME280;49747;51.334;6.830;2023-02-18T06:33:50;101356.72;;;11.64;100.00
63731;BME280;49747;51.334;6.830;2023-02-18T06:36:16;101341.28;;;11.56;100.00
63731;BME280;49747;51.334;6.830;2023-02-18T06:38:44;101356.84;;;11.63;100.00
63731;BME280;49747;51.334;6.830;2023-02-18T06:41:12;101353.13;;;11.65;100.00
63731;BME280;49747;51.334;6.830;2023-02-18T06:43:39;101350.50;;;11.78;100.00
63731;BME280;49747;51.334;6.830;2023-02-18T06:46:06;101359.97;;;11.69;100.00
63731;BME280;49747;51.334;6.830;2023-02-18T06:48:33;101350.03;;;11.71;100.00
63731;BME280;49747;51.334;6.830;2023-02-18T06:51:00;101361.34;;;11.75;100.00
63731;BME280;49747;51.334;6.830;2023-02-18T06:53:26;101350.91;;;11.72;100.00
63731;BME280;49747;51.334;6.830;2023-02-18T06:55:53;101354.84;;;11.66;100.00
63731;BME280;49747;51.334;6.830;2023-02-18T06:58:19;101371.31;;;11.58;100.00
63731;BME280;49747;51.334;6.830;2023-02-18T07:00:46;101370.88;;;11.65;100.00
63731;BME280;49747;51.334;6.830;2023-02-18T07:03:13;101375.69;;;11.72;100.00
63731;BME280;49747;51.334;6.830;2023-02-18T07:05:40;101364.94;;;11.61;100.00
63731;BME280;49747;51.334;6.830;2023-02-18T07:08:07;101372.31;;;11.70;100.00
63731;BME280;49747;51.334;6.830;2023-02-18T07:10:34;101368.22;;;11.65;100.00
63731;BME280;49747;51.334;6.830;2023-02-18T07:13:01;101360.50;;;11.74;100.00
63731;BME280;49747;51.334;6.830;2023-02-18T07:15:27;101360.50;;;11.74;100.00
63731;BME280;49747;51.334;6.830;2023-02-18T07:17:54;101359.97;;;11.69;100.00
63731;BME280;49747;51.334;6.830;2023-02-18T07:20:21;101357.50;;;11.66;100.00
63731;BME280;49747;51.334;6.830;2023-02-18T07:22:48;101348.22;;;11.72;100.00
63731;BME280;49747;51.334;6.830;2023-02-18T07:25:15;101339.25;;;11.60;100.00
63731;BME280;49747;51.334;6.830;2023-02-18T07:27:42;101358.34;;;11.67;100.00
63731;BME280;49747;51.334;6.830;2023-02-18T07:30:09;101347.28;;;11.73;100.00
63731;BME280;49747;51.334;6.830;2023-02-18T07:32:36;101355.72;;;11.79;100.00
63731;BME280;49747;51.334;6.830;2023-02-18T07:35:04;101372.94;;;11.74;100.00
63731;BME280;49747;51.334;6.830;2023-02-18T07:37:31;101379.22;;;11.73;100.00
63731;BME280;49747;51.334;6.830;2023-02-18T07:39:57;101373.25;;;11.69;100.00
63731;BME280;49747;51.334;6.830;2023-02-18T07:42:24;101370.53;;;11.83;100.00
63731;BME280;49747;51.334;6.830;2023-02-18T07:44:51;101379.59;;;11.81;100.00
63731;BME280;49747;51.334;6.830;2023-02-18T07:47:17;101390.78;;;11.86;100.00
63731;BME280;49747;51.334;6.830;2023-02-18T07:49:46;101396.41;;;11.81;100.00
63731;BME280;49747;51.334;6.830;2023-02-18T07:52:14;101397.16;;;11.83;100.00
63731;BME280;49747;51.334;6.830;2023-02-18T07:54:41;101390.81;;;11.72;100.00
63731;BME280;49747;51.334;6.830;2023-02-18T07:57:07;101401.25;;;11.89;100.00
63731;BME280;49747;51.334;6.830;2023-02-18T07:59:34;101399.25;;;11.78;100.00
63731;BME280;49747;51.334;6.830;2023-02-18T08:02:01;101392.44;;;11.74;100.00
63731;BME280;49747;51.334;6.830;2023-02-18T08:04:27;101399.75;;;11.71;100.00
63731;BME280;49747;51.334;6.830;2023-02-18T08:06:54;101400.06;;;11.66;100.00
63731;BME280;49747;51.334;6.830;2023-02-18T08:09:21;101416.19;;;11.77;100.00
63731;BME280;49747;51.334;6.830;2023-02-18T08:11:47;101410.25;;;11.59;100.00
63731;BME280;49747;51.334;6.830;2023-02-18T08:14:14;101417.84;;;11.66;100.00
63731;BME280;49747;51.334;6.830;2023-02-18T08:16:40;101413.88;;;11.58;100.00
63731;BME280;49747;51.334;6.830;2023-02-18T08:19:07;101414.72;;;11.59;100.00
63731;BME280;49747;51.334;6.830;2023-02-18T08:21:34;101422.59;;;11.60;100.00
63731;BME280;49747;51.334;6.830;2023-02-18T08:24:00;101423.09;;;11.53;100.00
63731;BME280;49747;51.334;6.830;2023-02-18T08:26:27;101412.75;;;11.48;100.00
63731;BME280;49747;51.334;6.830;2023-02-18T08:28:54;101424.38;;;11.47;100.00
63731;BME280;49747;51.334;6.830;2023-02-18T08:31:23;101435.50;;;11.40;100.00
63731;BME280;49747;51.334;6.830;2023-02-18T08:33:52;101419.28;;;11.30;100.00
63731;BME280;49747;51.334;6.830;2023-02-18T08:36:20;101419.94;;;11.33;100.00
63731;BME280;49747;51.334;6.830;2023-02-18T08:38:46;101416.34;;;11.34;100.00
63731;BME280;49747;51.334;6.830;2023-02-18T08:41:13;101412.47;;;11.53;99.98
63731;BME280;49747;51.334;6.830;2023-02-18T08:43:41;101409.59;;;11.29;99.91
63731;BME280;49747;51.334;6.830;2023-02-18T08:46:08;101415.00;;;11.42;99.12
63731;BME280;49747;51.334;6.830;2023-02-18T08:48:42;101399.47;;;11.48;96.77
63731;BME280;49747;51.334;6.830;2023-02-18T08:51:19;101408.94;;;11.52;96.79
63731;BME280;49747;51.334;6.830;2023-02-18T08:53:46;101404.47;;;11.53;95.35
63731;BME280;49747;51.334;6.830;2023-02-18T08:56:14;101408.94;;;11.52;95.56
63731;BME280;49747;51.334;6.830;2023-02-18T08:58:41;101410.91;;;11.63;95.80
63731;BME280;49747;51.334;6.830;2023-02-18T09:01:10;101404.28;;;11.56;95.32
63731;BME280;49747;51.334;6.830;2023-02-18T09:03:38;101414.19;;;11.54;95.25
63731;BME280;49747;51.334;6.830;2023-02-18T09:06:06;101409.28;;;11.60;95.71
63731;BME280;49747;51.334;6.830;2023-02-18T09:08:32;101411.03;;;11.62;95.61
63731;BME280;49747;51.334;6.830;2023-02-18T09:11:01;101405.00;;;11.45;95.89
63731;BME280;49747;51.334;6.830;2023-02-18T09:13:31;101404.34;;;11.42;96.56
63731;BME280;49747;51.334;6.830;2023-02-18T09:16:03;101404.69;;;11.50;95.81
63731;BME280;49747;51.334;6.830;2023-02-18T09:18:31;101391.16;;;11.53;96.32
63731;BME280;49747;51.334;6.830;2023-02-18T09:20:59;101389.41;;;11.53;95.88
63731;BME280;49747;51.334;6.830;2023-02-18T09:23:27;101398.22;;;11.54;95.66
63731;BME280;49747;51.334;6.830;2023-02-18T09:25:54;101393.97;;;11.64;95.00
63731;BME280;49747;51.334;6.830;2023-02-18T09:28:21;101388.72;;;11.23;95.72
63731;BME280;49747;51.334;6.830;2023-02-18T09:30:48;101408.28;;;11.49;94.80
63731;BME280;49747;51.334;6.830;2023-02-18T09:33:16;101405.25;;;11.55;94.46
63731;BME280;49747;51.334;6.830;2023-02-18T09:35:44;101408.56;;;11.58;93.59
63731;BME280;49747;51.334;6.830;2023-02-18T09:38:12;101402.03;;;11.50;92.73
63731;BME280;49747;51.334;6.830;2023-02-18T09:40:43;101395.75;;;11.51;93.23
63731;BME280;49747;51.334;6.830;2023-02-18T09:43:22;101397.72;;;11.62;93.59
63731;BME280;49747;51.334;6.830;2023-02-18T09:45:50;101388.50;;;11.53;92.29
63731;BME280;49747;51.334;6.830;2023-02-18T09:48:21;101399.81;;;11.56;91.94
63731;BME280;49747;51.334;6.830;2023-02-18T09:50:52;101399.16;;;11.53;91.75
63731;BME280;49747;51.334;6.830;2023-02-18T09:53:20;101390.56;;;11.49;92.16
63731;BME280;49747;51.334;6.830;2023-02-18T09:55:48;101388.56;;;11.39;92.33
63731;BME280;49747;51.334;6.830;2023-02-18T09:58:20;101385.66;;;11.56;91.62
63731;BME280;49747;51.334;6.830;2023-02-18T10:00:52;101382.28;;;11.40;92.16
63731;BME280;49747;51.334;6.830;2023-02-18T10:03:22;101384.25;;;11.50;91.56
63731;BME280;49747;51.334;6.830;2023-02-18T10:06:03;101371.16;;;11.47;90.97
63731;BME280;49747;51.334;6.830;2023-02-18T10:08:36;101383.00;;;11.56;91.21
63731;BME280;49747;51.334;6.830;2023-02-18T10:11:10;101380.28;;;11.43;90.71
63731;BME280;49747;51.334;6.830;2023-02-18T10:13:40;101382.81;;;11.59;91.35
63731;BME280;49747;51.334;6.830;2023-02-18T10:16:07;101384.63;;;11.58;91.13
63731;BME280;49747;51.334;6.830;2023-02-18T10:18:40;101382.53;;;12.16;99.87
63731;BME280;49747;51.334;6.830;2023-02-18T10:21:14;101384.31;;;12.03;91.08
63731;BME280;49747;51.334;6.830;2023-02-18T10:24:18;101387.63;;;11.94;90.37
63731;BME280;49747;51.334;6.830;2023-02-18T10:26:50;101386.66;;;11.95;90.39
63731;BME280;49747;51.334;6.830;2023-02-18T10:29:19;101390.13;;;11.82;90.37
63731;BME280;49747;51.334;6.830;2023-02-18T10:34:46;101397.75;;;11.74;91.62
63731;BME280;49747;51.334;6.830;2023-02-18T10:43:26;101408.38;;;11.62;93.79
63731;BME280;49747;51.334;6.830;2023-02-18T10:46:07;101418.06;;;11.63;94.20
63731;BME280;49747;51.334;6.830;2023-02-18T10:48:49;101418.66;;;11.53;96.07
63731;BME280;49747;51.334;6.830;2023-02-18T10:51:23;101410.44;;;11.56;96.49
63731;BME280;49747;51.334;6.830;2023-02-18T10:53:52;101418.75;;;11.52;98.26
63731;BME280;49747;51.334;6.830;2023-02-18T10:59:21;101418.06;;;11.63;99.78
63731;BME280;49747;51.334;6.830;2023-02-18T11:01:56;101421.38;;;11.66;100.00
63731;BME280;49747;51.334;6.830;2023-02-18T11:04:27;101423.03;;;11.54;100.00
63731;BME280;49747;51.334;6.830;2023-02-18T11:07:18;101421.41;;;11.52;100.00
63731;BME280;49747;51.334;6.830;2023-02-18T11:09:49;101419.72;;;11.51;100.00
63731;BME280;49747;51.334;6.830;2023-02-18T11:12:27;101415.72;;;11.44;100.00
63731;BME280;49747;51.334;6.830;2023-02-18T11:17:41;101437.19;;;11.55;100.00
63731;BME280;49747;51.334;6.830;2023-02-18T11:20:34;101434.41;;;11.29;100.00
63731;BME280;49747;51.334;6.830;2023-02-18T11:23:21;101442.63;;;11.39;100.00
63731;BME280;49747;51.334;6.830;2023-02-18T11:26:06;101431.38;;;11.07;100.00
63731;BME280;49747;51.334;6.830;2023-02-18T11:28:44;101429.88;;;11.17;100.00
63731;BME280;49747;51.334;6.830;2023-02-18T11:31:23;101436.28;;;11.27;100.00
63731;BME280;49747;51.334;6.830;2023-02-18T11:33:58;101417.50;;;11.16;100.00
63731;BME280;49747;51.334;6.830;2023-02-18T11:36:34;101424.50;;;11.31;100.00
63731;BME280;49747;51.334;6.830;2023-02-18T11:39:05;101428.91;;;11.18;100.00
63731;BME280;49747;51.334;6.830;2023-02-18T11:41:43;101429.47;;;11.23;100.00
63731;BME280;49747;51.334;6.830;2023-02-18T11:44:27;101426.41;;;11.29;100.00
63731;BME280;49747;51.334;6.830;2023-02-18T11:49:23;101424.19;;;11.36;100.00
63731;BME280;49747;51.334;6.830;2023-02-18T11:51:50;101429.28;;;11.26;100.00
63731;BME280;49747;51.334;6.830;2023-02-18T11:54:57;101430.97;;;11.27;100.00
63731;BME280;49747;51.334;6.830;2023-02-18T11:57:24;101428.59;;;11.37;100.00
63731;BME280;49747;51.334;6.830;2023-02-18T11:59:53;101426.97;;;11.34;100.00
63731;BME280;49747;51.334;6.830;2023-02-18T12:02:34;101425.94;;;11.37;100.00
63731;BME280;49747;51.334;6.830;2023-02-18T12:05:08;101423.63;;;11.45;100.00
63731;BME280;49747;51.334;6.830;2023-02-18T12:07:57;101422.47;;;11.49;100.00
63731;BME280;49747;51.334;6.830;2023-02-18T12:13:27;101410.69;;;11.53;100.00
63731;BME280;49747;51.334;6.830;2023-02-18T12:26:58;101408.22;;;11.50;100.00
63731;BME280;49747;51.334;6.830;2023-02-18T12:32:31;101415.22;;;11.51;100.00
63731;BME280;49747;51.334;6.830;2023-02-18T12:37:39;101409.44;;;11.45;100.00
63731;BME280;49747;51.334;6.830;2023-02-18T12:48:54;101406.94;;;11.56;100.00
63731;BME280;49747;51.334;6.830;2023-02-18T12:54:20;101407.13;;;11.53;100.00
63731;BME280;49747;51.334;6.830;2023-02-18T13:02:41;101401.56;;;11.43;100.00
63731;BME280;49747;51.334;6.830;2023-02-18T13:13:29;101403.84;;;11.49;100.00
63731;BME280;49747;51.334;6.830;2023-02-18T13:16:12;101401.38;;;11.46;100.00
63731;BME280;49747;51.334;6.830;2023-02-18T13:18:44;101410.03;;;11.50;100.00
63731;BME280;49747;51.334;6.830;2023-02-18T13:21:15;101400.22;;;11.50;100.00
63731;BME280;49747;51.334;6.830;2023-02-18T13:24:00;101410.53;;;11.42;100.00
63731;BME280;49747;51.334;6.830;2023-02-18T13:26:30;101410.03;;;11.50;100.00
63731;BME280;49747;51.334;6.830;2023-02-18T13:29:32;101409.59;;;11.56;100.00
63731;BME280;49747;51.334;6.830;2023-02-18T13:34:50;101397.25;;;11.55;100.00
63731;BME280;49747;51.334;6.830;2023-02-18T13:37:29;101397.47;;;11.52;100.00
63731;BME280;49747;51.334;6.830;2023-02-18T13:39:59;101399.06;;;11.54;100.00
63731;BME280;49747;51.334;6.830;2023-02-18T13:45:01;101402.78;;;11.52;100.00
63731;BME280;49747;51.334;6.830;2023-02-18T13:47:41;101408.91;;;11.40;100.00
63731;BME280;49747;51.334;6.830;2023-02-18T13:50:26;101392.97;;;11.52;100.00
63731;BME280;49747;51.334;6.830;2023-02-18T13:55:50;101399.16;;;11.53;100.00
63731;BME280;49747;51.334;6.830;2023-02-18T13:58:33;101392.13;;;11.52;100.00
63731;BME280;49747;51.334;6.830;2023-02-18T14:06:33;101397.38;;;11.53;100.00
63731;BME280;49747;51.334;6.830;2023-02-18T14:11:55;101393.63;;;11.56;100.00
63731;BME280;49747;51.334;6.830;2023-02-18T14:22:32;101383.94;;;11.82;100.00
63731;BME280;49747;51.334;6.830;2023-02-18T14:25:12;101389.13;;;11.71;100.00
63731;BME280;49747;51.334;6.830;2023-02-18T14:27:41;101393.81;;;11.80;100.00
63731;BME280;49747;51.334;6.830;2023-02-18T14:32:49;101383.09;;;11.81;100.00
63731;BME280;49747;51.334;6.830;2023-02-18T14:35:29;101364.50;;;11.67;100.00
63731;BME280;49747;51.334;6.830;2023-02-18T14:38:25;101389.84;;;11.87;100.00
63731;BME280;49747;51.334;6.830;2023-02-18T14:41:10;101382.91;;;11.84;100.00
63731;BME280;49747;51.334;6.830;2023-02-18T14:46:34;101382.91;;;11.84;100.00
63731;BME280;49747;51.334;6.830;2023-02-18T14:51:42;101376.25;;;11.77;100.00
63731;BME280;49747;51.334;6.830;2023-02-18T14:54:14;101387.56;;;11.81;100.00
63731;BME280;49747;51.334;6.830;2023-02-18T14:56:57;101384.03;;;11.80;100.00
63731;BME280;49747;51.334;6.830;2023-02-18T14:59:28;101385.56;;;11.84;100.00